sensor_id;sensor_type;location;lat;lon;timestamp;P1;durP1;ratioP1;P2;durP2;ratioP2
67248;SDS011;63247;54.300;18.592;2023-05-20T00:01:59;6.13;;;1.30;;
67248;SDS011;63247;54.300;18.592;2023-05-20T00:04:24;2.83;;;1.00;;
67248;SDS011;63247;54.300;18.592;2023-05-20T00:06:50;3.10;;;1.00;;
67248;SDS011;63247;54.300;18.592;2023-05-20T00:09:15;2.83;;;0.95;;
67248;SDS011;63247;54.300;18.592;2023-05-20T00:11:44;4.47;;;1.20;;
67248;SDS011;63247;54.300;18.592;2023-05-20T00:14:10;3.25;;;1.00;;
67248;SDS011;63247;54.300;18.592;2023-05-20T00:16:35;4.10;;;0.93;;
67248;SDS011;63247;54.300;18.592;2023-05-20T00:19:00;3.78;;;1.10;;
67248;SDS011;63247;54.300;18.592;2023-05-20T00:21:26;4.03;;;1.00;;
67248;SDS011;63247;54.300;18.592;2023-05-20T00:23:51;4.50;;;0.90;;
67248;SDS011;63247;54.300;18.592;2023-05-20T00:26:17;3.97;;;1.07;;
67248;SDS011;63247;54.300;18.592;2023-05-20T00:28:43;3.70;;;1.10;;
67248;SDS011;63247;54.300;18.592;2023-05-20T00:31:08;3.83;;;1.20;;
67248;SDS011;63247;54.300;18.592;2023-05-20T00:33:34;3.07;;;1.00;;
67248;SDS011;63247;54.300;18.592;2023-05-20T00:36:00;5.32;;;1.20;;
67248;SDS011;63247;54.300;18.592;2023-05-20T00:38:26;2.95;;;0.98;;
67248;SDS011;63247;54.300;18.592;2023-05-20T00:40:51;2.53;;;0.90;;
67248;SDS011;63247;54.300;18.592;2023-05-20T00:43:17;4.57;;;0.90;;
67248;SDS011;63247;54.300;18.592;2023-05-20T00:45:44;4.88;;;1.02;;
67248;SDS011;63247;54.300;18.592;2023-05-20T00:48:10;4.90;;;1.15;;
67248;SDS011;63247;54.300;18.592;2023-05-20T00:50:35;3.73;;;1.00;;
67248;SDS011;63247;54.300;18.592;2023-05-20T00:53:01;3.47;;;1.00;;
67248;SDS011;63247;54.300;18.592;2023-05-20T00:55:27;2.58;;;0.88;;
67248;SDS011;63247;54.300;18.592;2023-05-20T00:57:52;2.70;;;1.00;;
67248;SDS011;63247;54.300;18.592;2023-05-20T01:00:18;2.30;;;0.70;;
67248;SDS011;63247;54.300;18.592;2023-05-20T01:02:44;3.90;;;0.90;;
67248;SDS011;63247;54.300;18.592;2023-05-20T01:05:09;4.80;;;0.90;;
67248;SDS011;63247;54.300;18.592;2023-05-20T01:07:35;3.95;;;0.90;;
67248;SDS011;63247;54.300;18.592;2023-05-20T01:10:00;6.78;;;1.00;;
67248;SDS011;63247;54.300;18.592;2023-05-20T01:12:27;4.43;;;0.97;;
67248;SDS011;63247;54.300;18.592;2023-05-20T01:15:00;4.63;;;1.00;;
67248;SDS011;63247;54.300;18.592;2023-05-20T01:17:29;2.83;;;0.90;;
67248;SDS011;63247;54.300;18.592;2023-05-20T01:19:57;6.03;;;1.50;;
67248;SDS011;63247;54.300;18.592;2023-05-20T01:22:24;4.63;;;0.95;;
67248;SDS011;63247;54.300;18.592;2023-05-20T01:24:51;2.87;;;1.00;;
67248;SDS011;63247;54.300;18.592;2023-05-20T01:27:20;4.50;;;1.10;;
67248;SDS011;63247;54.300;18.592;2023-05-20T01:29:47;4.03;;;0.93;;
67248;SDS011;63247;54.300;18.592;2023-05-20T01:32:17;4.32;;;0.95;;
67248;SDS011;63247;54.300;18.592;2023-05-20T01:34:43;3.17;;;1.25;;
67248;SDS011;63247;54.300;18.592;2023-05-20T01:37:11;4.13;;;1.07;;
67248;SDS011;63247;54.300;18.592;2023-05-20T01:39:38;3.83;;;1.00;;
67248;SDS011;63247;54.300;18.592;2023-05-20T01:42:05;3.72;;;1.20;;
67248;SDS011;63247;54.300;18.592;2023-05-20T01:44:32;6.40;;;1.10;;
67248;SDS011;63247;54.300;18.592;2023-05-20T01:46:58;5.53;;;1.10;;
67248;SDS011;63247;54.300;18.592;2023-05-20T01:49:23;3.13;;;1.05;;
67248;SDS011;63247;54.300;18.592;2023-05-20T01:51:49;4.20;;;1.20;;
67248;SDS011;63247;54.300;18.592;2023-05-20T01:54:14;4.47;;;1.00;;
67248;SDS011;63247;54.300;18.592;2023-05-20T01:56:40;4.57;;;1.10;;
67248;SDS011;63247;54.300;18.592;2023-05-20T01:59:05;4.10;;;1.10;;
67248;SDS011;63247;54.300;18.592;2023-05-20T02:01:30;3.00;;;1.00;;
67248;SDS011;63247;54.300;18.592;2023-05-20T02:03:56;4.23;;;1.20;;
67248;SDS011;63247;54.300;18.592;2023-05-20T02:06:21;4.57;;;1.10;;
67248;SDS011;63247;54.300;18.592;2023-05-20T02:08:46;5.73;;;1.30;;
67248;SDS011;63247;54.300;18.592;2023-05-20T02:11:12;4.73;;;1.20;;
67248;SDS011;63247;54.300;18.592;2023-05-20T02:13:37;4.80;;;1.67;;
67248;SDS011;63247;54.300;18.592;2023-05-20T02:16:03;6.53;;;1.67;;
67248;SDS011;63247;54.300;18.592;2023-05-20T02:18:29;6.17;;;1.80;;
67248;SDS011;63247;54.300;18.592;2023-05-20T02:20:54;5.93;;;1.77;;
67248;SDS011;63247;54.300;18.592;2023-05-20T02:23:19;4.68;;;1.80;;
67248;SDS011;63247;54.300;18.592;2023-05-20T02:25:45;7.13;;;1.90;;
67248;SDS011;63247;54.300;18.592;2023-05-20T02:28:10;5.23;;;1.80;;
67248;SDS011;63247;54.300;18.592;2023-05-20T02:30:39;9.03;;;2.30;;
67248;SDS011;63247;54.300;18.592;2023-05-20T02:33:04;5.10;;;1.80;;
67248;SDS011;63247;54.300;18.592;2023-05-20T02:35:30;5.22;;;1.70;;
67248;SDS011;63247;54.300;18.592;2023-05-20T02:37:56;5.30;;;1.47;;
67248;SDS011;63247;54.300;18.592;2023-05-20T02:40:21;4.90;;;1.47;;
67248;SDS011;63247;54.300;18.592;2023-05-20T02:42:47;3.35;;;1.15;;
67248;SDS011;63247;54.300;18.592;2023-05-20T02:45:12;4.60;;;1.42;;
67248;SDS011;63247;54.300;18.592;2023-05-20T02:47:37;4.33;;;1.30;;
67248;SDS011;63247;54.300;18.592;2023-05-20T02:50:03;3.97;;;1.40;;
67248;SDS011;63247;54.300;18.592;2023-05-20T02:52:29;4.80;;;1.38;;
67248;SDS011;63247;54.300;18.592;2023-05-20T02:54:54;7.17;;;1.70;;
67248;SDS011;63247;54.300;18.592;2023-05-20T02:57:20;6.10;;;1.40;;
67248;SDS011;63247;54.300;18.592;2023-05-20T02:59:45;5.65;;;1.40;;
67248;SDS011;63247;54.300;18.592;2023-05-20T03:02:11;6.10;;;1.60;;
67248;SDS011;63247;54.300;18.592;2023-05-20T03:04:36;3.83;;;1.20;;
67248;SDS011;63247;54.300;18.592;2023-05-20T03:07:05;4.35;;;1.40;;
67248;SDS011;63247;54.300;18.592;2023-05-20T03:09:34;6.35;;;1.50;;
67248;SDS011;63247;54.300;18.592;2023-05-20T03:11:59;4.93;;;1.40;;
67248;SDS011;63247;54.300;18.592;2023-05-20T03:14:25;4.07;;;1.30;;
67248;SDS011;63247;54.300;18.592;2023-05-20T03:16:50;6.53;;;1.27;;
67248;SDS011;63247;54.300;18.592;2023-05-20T03:19:16;4.43;;;1.10;;
67248;SDS011;63247;54.300;18.592;2023-05-20T03:21:41;5.57;;;1.43;;
67248;SDS011;63247;54.300;18.592;2023-05-20T03:24:07;3.65;;;1.40;;
67248;SDS011;63247;54.300;18.592;2023-05-20T03:26:34;9.67;;;1.30;;
67248;SDS011;63247;54.300;18.592;2023-05-20T03:29:01;6.20;;;1.40;;
67248;SDS011;63247;54.300;18.592;2023-05-20T03:31:27;3.97;;;1.20;;
67248;SDS011;63247;54.300;18.592;2023-05-20T03:33:53;4.65;;;1.33;;
67248;SDS011;63247;54.300;18.592;2023-05-20T03:36:18;4.38;;;1.30;;
67248;SDS011;63247;54.300;18.592;2023-05-20T03:38:44;4.53;;;1.30;;
67248;SDS011;63247;54.300;18.592;2023-05-20T03:41:09;4.50;;;1.50;;
67248;SDS011;63247;54.300;18.592;2023-05-20T03:43:34;4.90;;;1.20;;
67248;SDS011;63247;54.300;18.592;2023-05-20T03:46:00;5.15;;;1.50;;
67248;SDS011;63247;54.300;18.592;2023-05-20T03:48:25;3.27;;;1.30;;
67248;SDS011;63247;54.300;18.592;2023-05-20T03:50:51;3.90;;;1.23;;
67248;SDS011;63247;54.300;18.592;2023-05-20T03:53:16;4.50;;;1.20;;
67248;SDS011;63247;54.300;18.592;2023-05-20T03:55:43;3.10;;;1.20;;
67248;SDS011;63247;54.300;18.592;2023-05-20T03:58:08;4.07;;;1.10;;
67248;SDS011;63247;54.300;18.592;2023-05-20T04:00:33;5.03;;;1.23;;
67248;SDS011;63247;54.300;18.592;2023-05-20T04:02:59;5.05;;;1.50;;
67248;SDS011;63247;54.300;18.592;2023-05-20T04:05:25;4.77;;;1.30;;
67248;SDS011;63247;54.300;18.592;2023-05-20T04:07:50;5.15;;;1.50;;
67248;SDS011;63247;54.300;18.592;2023-05-20T04:10:17;4.33;;;1.40;;
67248;SDS011;63247;54.300;18.592;2023-05-20T04:12:43;4.97;;;1.47;;
67248;SDS011;63247;54.300;18.592;2023-05-20T04:15:09;9.93;;;1.60;;
67248;SDS011;63247;54.300;18.592;2023-05-20T04:17:34;3.90;;;1.40;;
67248;SDS011;63247;54.300;18.592;2023-05-20T04:20:02;5.63;;;1.30;;
67248;SDS011;63247;54.300;18.592;2023-05-20T04:22:31;6.55;;;1.55;;
67248;SDS011;63247;54.300;18.592;2023-05-20T04:24:56;5.67;;;1.60;;
67248;SDS011;63247;54.300;18.592;2023-05-20T04:27:23;4.65;;;1.35;;
67248;SDS011;63247;54.300;18.592;2023-05-20T04:29:50;6.40;;;1.50;;
67248;SDS011;63247;54.300;18.592;2023-05-20T04:32:18;7.97;;;1.57;;
67248;SDS011;63247;54.300;18.592;2023-05-20T04:34:44;4.30;;;1.60;;
67248;SDS011;63247;54.300;18.592;2023-05-20T04:37:10;4.47;;;1.55;;
67248;SDS011;63247;54.300;18.592;2023-05-20T04:39:37;4.20;;;1.45;;
67248;SDS011;63247;54.300;18.592;2023-05-20T04:42:02;4.40;;;1.40;;
67248;SDS011;63247;54.300;18.592;2023-05-20T04:44:28;4.75;;;1.50;;
67248;SDS011;63247;54.300;18.592;2023-05-20T04:46:54;5.25;;;1.63;;
67248;SDS011;63247;54.300;18.592;2023-05-20T04:49:22;6.77;;;1.67;;
67248;SDS011;63247;54.300;18.592;2023-05-20T04:51:49;5.03;;;1.67;;
67248;SDS011;63247;54.300;18.592;2023-05-20T04:54:15;5.38;;;1.60;;
67248;SDS011;63247;54.300;18.592;2023-05-20T04:56:42;6.93;;;1.58;;
67248;SDS011;63247;54.300;18.592;2023-05-20T04:59:08;5.77;;;1.43;;
67248;SDS011;63247;54.300;18.592;2023-05-20T05:01:34;5.00;;;1.50;;
67248;SDS011;63247;54.300;18.592;2023-05-20T05:04:00;6.07;;;1.60;;
67248;SDS011;63247;54.300;18.592;2023-05-20T05:06:26;4.95;;;1.95;;
67248;SDS011;63247;54.300;18.592;2023-05-20T05:08:51;8.27;;;1.70;;
67248;SDS011;63247;54.300;18.592;2023-05-20T05:11:17;9.00;;;1.90;;
67248;SDS011;63247;54.300;18.592;2023-05-20T05:13:42;5.27;;;1.53;;
67248;SDS011;63247;54.300;18.592;2023-05-20T05:16:08;4.83;;;2.00;;
67248;SDS011;63247;54.300;18.592;2023-05-20T05:18:33;6.67;;;2.00;;
67248;SDS011;63247;54.300;18.592;2023-05-20T05:20:59;8.88;;;1.77;;
67248;SDS011;63247;54.300;18.592;2023-05-20T05:23:26;4.30;;;1.80;;
67248;SDS011;63247;54.300;18.592;2023-05-20T05:25:51;5.43;;;1.80;;
67248;SDS011;63247;54.300;18.592;2023-05-20T05:28:17;4.93;;;1.75;;
67248;SDS011;63247;54.300;18.592;2023-05-20T05:30:42;4.30;;;1.80;;
67248;SDS011;63247;54.300;18.592;2023-05-20T05:33:08;7.33;;;1.77;;
67248;SDS011;63247;54.300;18.592;2023-05-20T05:35:33;4.70;;;1.60;;
67248;SDS011;63247;54.300;18.592;2023-05-20T05:37:59;5.70;;;1.90;;
67248;SDS011;63247;54.300;18.592;2023-05-20T05:40:25;5.25;;;1.80;;
67248;SDS011;63247;54.300;18.592;2023-05-20T05:42:51;7.53;;;1.88;;
67248;SDS011;63247;54.300;18.592;2023-05-20T05:45:16;7.67;;;2.27;;
67248;SDS011;63247;54.300;18.592;2023-05-20T05:47:42;5.23;;;1.80;;
67248;SDS011;63247;54.300;18.592;2023-05-20T05:50:07;5.87;;;1.47;;
67248;SDS011;63247;54.300;18.592;2023-05-20T05:52:34;5.72;;;2.00;;
67248;SDS011;63247;54.300;18.592;2023-05-20T05:55:00;6.05;;;2.08;;
67248;SDS011;63247;54.300;18.592;2023-05-20T05:57:26;5.87;;;2.20;;
67248;SDS011;63247;54.300;18.592;2023-05-20T05:59:54;5.28;;;1.60;;
67248;SDS011;63247;54.300;18.592;2023-05-20T06:02:20;5.77;;;2.00;;
67248;SDS011;63247;54.300;18.592;2023-05-20T06:04:46;5.25;;;1.88;;
67248;SDS011;63247;54.300;18.592;2023-05-20T06:07:11;6.55;;;1.90;;
67248;SDS011;63247;54.300;18.592;2023-05-20T06:09:37;7.57;;;2.08;;
67248;SDS011;63247;54.300;18.592;2023-05-20T06:12:03;5.67;;;1.90;;
67248;SDS011;63247;54.300;18.592;2023-05-20T06:14:28;7.32;;;2.10;;
67248;SDS011;63247;54.300;18.592;2023-05-20T06:16:54;5.80;;;2.10;;
67248;SDS011;63247;54.300;18.592;2023-05-20T06:19:19;8.50;;;2.20;;
67248;SDS011;63247;54.300;18.592;2023-05-20T06:21:45;5.83;;;2.30;;
67248;SDS011;63247;54.300;18.592;2023-05-20T06:24:10;6.22;;;1.95;;
67248;SDS011;63247;54.300;18.592;2023-05-20T06:26:35;7.65;;;1.88;;
67248;SDS011;63247;54.300;18.592;2023-05-20T06:29:01;7.73;;;2.23;;
67248;SDS011;63247;54.300;18.592;2023-05-20T06:31:27;5.72;;;2.08;;
67248;SDS011;63247;54.300;18.592;2023-05-20T06:33:54;5.67;;;2.13;;
67248;SDS011;63247;54.300;18.592;2023-05-20T06:36:20;5.03;;;1.70;;
67248;SDS011;63247;54.300;18.592;2023-05-20T06:38:45;6.67;;;2.37;;
67248;SDS011;63247;54.300;18.592;2023-05-20T06:41:11;7.82;;;2.20;;
67248;SDS011;63247;54.300;18.592;2023-05-20T06:43:36;6.40;;;2.33;;
67248;SDS011;63247;54.300;18.592;2023-05-20T06:46:01;6.77;;;2.27;;
67248;SDS011;63247;54.300;18.592;2023-05-20T06:48:27;7.77;;;2.10;;
67248;SDS011;63247;54.300;18.592;2023-05-20T06:50:52;6.93;;;2.30;;
67248;SDS011;63247;54.300;18.592;2023-05-20T06:53:18;8.52;;;3.28;;
67248;SDS011;63247;54.300;18.592;2023-05-20T06:55:44;9.13;;;2.70;;
67248;SDS011;63247;54.300;18.592;2023-05-20T06:58:09;9.77;;;2.53;;
67248;SDS011;63247;54.300;18.592;2023-05-20T07:00:35;8.48;;;2.50;;
67248;SDS011;63247;54.300;18.592;2023-05-20T07:03:00;7.77;;;2.20;;
67248;SDS011;63247;54.300;18.592;2023-05-20T07:05:26;7.90;;;2.57;;
67248;SDS011;63247;54.300;18.592;2023-05-20T07:07:52;12.38;;;3.20;;
67248;SDS011;63247;54.300;18.592;2023-05-20T07:10:18;8.70;;;2.90;;
67248;SDS011;63247;54.300;18.592;2023-05-20T07:12:43;6.73;;;2.60;;
67248;SDS011;63247;54.300;18.592;2023-05-20T07:15:09;6.97;;;2.60;;
67248;SDS011;63247;54.300;18.592;2023-05-20T07:17:35;6.80;;;2.60;;
67248;SDS011;63247;54.300;18.592;2023-05-20T07:20:00;8.68;;;2.70;;
67248;SDS011;63247;54.300;18.592;2023-05-20T07:22:26;9.23;;;3.20;;
67248;SDS011;63247;54.300;18.592;2023-05-20T07:24:51;6.07;;;2.70;;
67248;SDS011;63247;54.300;18.592;2023-05-20T07:27:17;7.75;;;3.00;;
67248;SDS011;63247;54.300;18.592;2023-05-20T07:29:42;12.88;;;2.92;;
67248;SDS011;63247;54.300;18.592;2023-05-20T07:32:08;7.40;;;3.40;;
67248;SDS011;63247;54.300;18.592;2023-05-20T07:34:34;8.18;;;3.00;;
67248;SDS011;63247;54.300;18.592;2023-05-20T07:37:00;7.13;;;2.80;;
67248;SDS011;63247;54.300;18.592;2023-05-20T07:39:25;5.60;;;2.70;;
67248;SDS011;63247;54.300;18.592;2023-05-20T07:41:51;9.80;;;3.10;;
67248;SDS011;63247;54.300;18.592;2023-05-20T07:44:16;7.73;;;3.07;;
67248;SDS011;63247;54.300;18.592;2023-05-20T07:46:48;7.40;;;3.20;;
67248;SDS011;63247;54.300;18.592;2023-05-20T07:49:13;8.97;;;3.20;;
67248;SDS011;63247;54.300;18.592;2023-05-20T07:51:39;7.55;;;2.95;;
67248;SDS011;63247;54.300;18.592;2023-05-20T07:54:05;9.73;;;3.08;;
67248;SDS011;63247;54.300;18.592;2023-05-20T07:56:30;11.43;;;3.40;;
67248;SDS011;63247;54.300;18.592;2023-05-20T07:58:57;11.32;;;3.50;;
67248;SDS011;63247;54.300;18.592;2023-05-20T08:01:24;7.05;;;2.97;;
67248;SDS011;63247;54.300;18.592;2023-05-20T08:03:50;10.55;;;3.47;;
67248;SDS011;63247;54.300;18.592;2023-05-20T08:06:16;7.33;;;3.40;;
67248;SDS011;63247;54.300;18.592;2023-05-20T08:08:41;6.07;;;3.20;;
67248;SDS011;63247;54.300;18.592;2023-05-20T08:11:07;8.13;;;3.60;;
67248;SDS011;63247;54.300;18.592;2023-05-20T08:13:33;8.35;;;3.45;;
67248;SDS011;63247;54.300;18.592;2023-05-20T08:15:58;9.60;;;3.70;;
67248;SDS011;63247;54.300;18.592;2023-05-20T08:18:25;9.30;;;3.80;;
67248;SDS011;63247;54.300;18.592;2023-05-20T08:20:51;9.00;;;3.40;;
67248;SDS011;63247;54.300;18.592;2023-05-20T08:23:16;5.87;;;3.37;;
67248;SDS011;63247;54.300;18.592;2023-05-20T08:25:42;8.20;;;3.07;;
67248;SDS011;63247;54.300;18.592;2023-05-20T08:28:10;6.28;;;3.30;;
67248;SDS011;63247;54.300;18.592;2023-05-20T08:30:36;8.80;;;3.20;;
67248;SDS011;63247;54.300;18.592;2023-05-20T08:33:01;10.73;;;3.42;;
67248;SDS011;63247;54.300;18.592;2023-05-20T08:35:27;10.57;;;3.53;;
67248;SDS011;63247;54.300;18.592;2023-05-20T08:37:52;6.47;;;3.00;;
67248;SDS011;63247;54.300;18.592;2023-05-20T08:40:18;9.73;;;3.17;;
67248;SDS011;63247;54.300;18.592;2023-05-20T08:42:45;7.38;;;2.83;;
67248;SDS011;63247;54.300;18.592;2023-05-20T08:45:14;7.03;;;3.17;;
67248;SDS011;63247;54.300;18.592;2023-05-20T08:47:41;6.28;;;3.10;;
67248;SDS011;63247;54.300;18.592;2023-05-20T08:50:08;8.63;;;3.43;;
67248;SDS011;63247;54.300;18.592;2023-05-20T08:52:34;8.35;;;3.03;;
67248;SDS011;63247;54.300;18.592;2023-05-20T08:55:02;9.93;;;3.13;;
67248;SDS011;63247;54.300;18.592;2023-05-20T08:57:32;11.93;;;3.35;;
67248;SDS011;63247;54.300;18.592;2023-05-20T08:59:58;9.05;;;3.10;;
67248;SDS011;63247;54.300;18.592;2023-05-20T09:02:24;6.97;;;3.22;;
67248;SDS011;63247;54.300;18.592;2023-05-20T09:04:49;6.93;;;3.00;;
67248;SDS011;63247;54.300;18.592;2023-05-20T09:07:26;7.60;;;3.40;;
67248;SDS011;63247;54.300;18.592;2023-05-20T09:09:54;8.85;;;3.13;;
67248;SDS011;63247;54.300;18.592;2023-05-20T09:12:20;8.37;;;3.80;;
67248;SDS011;63247;54.300;18.592;2023-05-20T09:14:46;8.85;;;3.80;;
67248;SDS011;63247;54.300;18.592;2023-05-20T09:17:11;11.57;;;3.87;;
67248;SDS011;63247;54.300;18.592;2023-05-20T09:19:37;11.20;;;3.50;;
67248;SDS011;63247;54.300;18.592;2023-05-20T09:22:02;7.17;;;3.60;;
67248;SDS011;63247;54.300;18.592;2023-05-20T09:24:29;7.25;;;3.40;;
67248;SDS011;63247;54.300;18.592;2023-05-20T09:26:55;7.50;;;3.77;;
67248;SDS011;63247;54.300;18.592;2023-05-20T09:29:21;10.32;;;3.50;;
67248;SDS011;63247;54.300;18.592;2023-05-20T09:31:47;11.73;;;4.18;;
67248;SDS011;63247;54.300;18.592;2023-05-20T09:34:14;7.53;;;3.35;;
67248;SDS011;63247;54.300;18.592;2023-05-20T09:36:41;10.85;;;3.47;;
67248;SDS011;63247;54.300;18.592;2023-05-20T09:39:15;7.30;;;3.07;;
67248;SDS011;63247;54.300;18.592;2023-05-20T09:41:53;11.15;;;3.30;;
67248;SDS011;63247;54.300;18.592;2023-05-20T09:44:21;8.75;;;3.30;;
67248;SDS011;63247;54.300;18.592;2023-05-20T09:46:47;9.50;;;3.40;;
67248;SDS011;63247;54.300;18.592;2023-05-20T09:49:15;8.65;;;3.67;;
67248;SDS011;63247;54.300;18.592;2023-05-20T09:51:41;7.93;;;3.57;;
67248;SDS011;63247;54.300;18.592;2023-05-20T09:54:08;8.73;;;3.50;;
67248;SDS011;63247;54.300;18.592;2023-05-20T09:56:36;9.43;;;3.75;;
67248;SDS011;63247;54.300;18.592;2023-05-20T09:59:04;9.82;;;3.47;;
67248;SDS011;63247;54.300;18.592;2023-05-20T10:01:29;11.98;;;4.10;;
67248;SDS011;63247;54.300;18.592;2023-05-20T10:03:55;12.67;;;3.80;;
67248;SDS011;63247;54.300;18.592;2023-05-20T10:06:39;11.30;;;4.40;;
67248;SDS011;63247;54.300;18.592;2023-05-20T10:09:20;12.15;;;4.00;;
67248;SDS011;63247;54.300;18.592;2023-05-20T10:11:52;9.88;;;3.80;;
67248;SDS011;63247;54.300;18.592;2023-05-20T10:17:16;11.55;;;4.10;;
67248;SDS011;63247;54.300;18.592;2023-05-20T10:19:49;9.30;;;3.60;;
67248;SDS011;63247;54.300;18.592;2023-05-20T10:22:24;10.77;;;3.75;;
67248;SDS011;63247;54.300;18.592;2023-05-20T10:24:56;12.20;;;4.25;;
67248;SDS011;63247;54.300;18.592;2023-05-20T10:27:23;10.48;;;3.88;;
67248;SDS011;63247;54.300;18.592;2023-05-20T10:29:50;11.67;;;3.93;;
67248;SDS011;63247;54.300;18.592;2023-05-20T10:32:36;10.38;;;4.25;;
67248;SDS011;63247;54.300;18.592;2023-05-20T10:35:03;12.55;;;4.47;;
67248;SDS011;63247;54.300;18.592;2023-05-20T10:37:42;11.50;;;4.30;;
67248;SDS011;63247;54.300;18.592;2023-05-20T10:40:10;8.88;;;3.70;;
67248;SDS011;63247;54.300;18.592;2023-05-20T10:42:37;8.80;;;3.78;;
67248;SDS011;63247;54.300;18.592;2023-05-20T10:45:04;11.27;;;3.83;;
67248;SDS011;63247;54.300;18.592;2023-05-20T10:47:30;11.70;;;3.67;;
67248;SDS011;63247;54.300;18.592;2023-05-20T10:49:56;10.38;;;3.60;;
67248;SDS011;63247;54.300;18.592;2023-05-20T10:52:22;11.55;;;3.88;;
67248;SDS011;63247;54.300;18.592;2023-05-20T10:54:55;10.13;;;4.25;;
67248;SDS011;63247;54.300;18.592;2023-05-20T10:57:22;11.52;;;4.15;;
67248;SDS011;63247;54.300;18.592;2023-05-20T10:59:49;11.02;;;4.03;;
67248;SDS011;63247;54.300;18.592;2023-05-20T11:02:15;11.87;;;4.30;;
67248;SDS011;63247;54.300;18.592;2023-05-20T11:04:41;12.55;;;4.15;;
67248;SDS011;63247;54.300;18.592;2023-05-20T11:07:07;9.30;;;4.18;;
67248;SDS011;63247;54.300;18.592;2023-05-20T11:09:33;10.23;;;4.33;;
67248;SDS011;63247;54.300;18.592;2023-05-20T11:11:59;9.57;;;4.05;;
67248;SDS011;63247;54.300;18.592;2023-05-20T11:14:26;9.10;;;3.90;;
67248;SDS011;63247;54.300;18.592;2023-05-20T11:16:54;11.02;;;4.70;;
67248;SDS011;63247;54.300;18.592;2023-05-20T11:19:24;11.70;;;4.65;;
67248;SDS011;63247;54.300;18.592;2023-05-20T11:21:50;10.00;;;3.90;;
67248;SDS011;63247;54.300;18.592;2023-05-20T11:24:26;12.80;;;4.20;;
67248;SDS011;63247;54.300;18.592;2023-05-20T11:26:53;8.18;;;3.63;;
67248;SDS011;63247;54.300;18.592;2023-05-20T11:29:19;10.25;;;4.07;;
67248;SDS011;63247;54.300;18.592;2023-05-20T11:31:46;10.68;;;3.90;;
67248;SDS011;63247;54.300;18.592;2023-05-20T11:34:14;8.90;;;3.90;;
67248;SDS011;63247;54.300;18.592;2023-05-20T11:36:42;15.18;;;5.18;;
67248;SDS011;63247;54.300;18.592;2023-05-20T11:39:08;9.83;;;3.50;;
67248;SDS011;63247;54.300;18.592;2023-05-20T11:41:35;10.52;;;3.50;;
67248;SDS011;63247;54.300;18.592;2023-05-20T11:44:01;8.33;;;3.50;;
67248;SDS011;63247;54.300;18.592;2023-05-20T11:46:26;9.23;;;3.65;;
67248;SDS011;63247;54.300;18.592;2023-05-20T11:48:55;11.80;;;3.47;;
67248;SDS011;63247;54.300;18.592;2023-05-20T11:51:27;10.82;;;3.63;;
67248;SDS011;63247;54.300;18.592;2023-05-20T11:54:11;7.15;;;3.20;;
67248;SDS011;63247;54.300;18.592;2023-05-20T11:56:37;7.88;;;3.63;;
67248;SDS011;63247;54.300;18.592;2023-05-20T11:59:03;6.60;;;3.30;;
67248;SDS011;63247;54.300;18.592;2023-05-20T12:01:34;8.05;;;2.88;;
67248;SDS011;63247;54.300;18.592;2023-05-20T12:04:07;9.18;;;3.47;;
67248;SDS011;63247;54.300;18.592;2023-05-20T12:06:33;8.50;;;3.53;;
67248;SDS011;63247;54.300;18.592;2023-05-20T12:09:01;9.00;;;4.03;;
67248;SDS011;63247;54.300;18.592;2023-05-20T12:11:34;12.27;;;3.75;;
67248;SDS011;63247;54.300;18.592;2023-05-20T12:14:01;14.07;;;3.63;;
67248;SDS011;63247;54.300;18.592;2023-05-20T12:16:28;9.65;;;3.78;;
67248;SDS011;63247;54.300;18.592;2023-05-20T12:18:55;9.98;;;3.50;;
67248;SDS011;63247;54.300;18.592;2023-05-20T12:21:20;8.50;;;3.43;;
67248;SDS011;63247;54.300;18.592;2023-05-20T12:23:46;8.40;;;3.57;;
67248;SDS011;63247;54.300;18.592;2023-05-20T12:26:11;9.10;;;3.53;;
67248;SDS011;63247;54.300;18.592;2023-05-20T12:28:36;9.57;;;3.50;;
67248;SDS011;63247;54.300;18.592;2023-05-20T12:31:02;12.00;;;3.53;;
67248;SDS011;63247;54.300;18.592;2023-05-20T12:33:27;10.17;;;3.00;;
67248;SDS011;63247;54.300;18.592;2023-05-20T12:35:52;11.20;;;3.35;;
67248;SDS011;63247;54.300;18.592;2023-05-20T12:38:18;8.75;;;3.28;;
67248;SDS011;63247;54.300;18.592;2023-05-20T12:40:44;8.07;;;3.30;;
67248;SDS011;63247;54.300;18.592;2023-05-20T12:43:09;8.23;;;3.17;;
67248;SDS011;63247;54.300;18.592;2023-05-20T12:45:35;8.30;;;3.00;;
67248;SDS011;63247;54.300;18.592;2023-05-20T12:48:00;7.13;;;3.40;;
67248;SDS011;63247;54.300;18.592;2023-05-20T12:50:26;8.47;;;3.30;;
67248;SDS011;63247;54.300;18.592;2023-05-20T12:52:51;8.00;;;3.22;;
67248;SDS011;63247;54.300;18.592;2023-05-20T12:55:17;8.50;;;3.20;;
67248;SDS011;63247;54.300;18.592;2023-05-20T12:57:43;9.67;;;3.67;;
67248;SDS011;63247;54.300;18.592;2023-05-20T13:00:09;9.73;;;4.15;;
67248;SDS011;63247;54.300;18.592;2023-05-20T13:02:36;9.10;;;3.35;;
67248;SDS011;63247;54.300;18.592;2023-05-20T13:05:03;7.72;;;3.45;;
67248;SDS011;63247;54.300;18.592;2023-05-20T13:07:29;6.05;;;2.97;;
67248;SDS011;63247;54.300;18.592;2023-05-20T13:09:56;8.23;;;3.60;;
67248;SDS011;63247;54.300;18.592;2023-05-20T13:12:22;8.68;;;3.72;;
67248;SDS011;63247;54.300;18.592;2023-05-20T13:14:48;7.53;;;3.57;;
67248;SDS011;63247;54.300;18.592;2023-05-20T13:17:13;8.17;;;3.20;;
67248;SDS011;63247;54.300;18.592;2023-05-20T13:19:39;9.38;;;3.90;;
67248;SDS011;63247;54.300;18.592;2023-05-20T13:22:04;7.77;;;3.37;;
67248;SDS011;63247;54.300;18.592;2023-05-20T13:24:30;7.45;;;3.50;;
67248;SDS011;63247;54.300;18.592;2023-05-20T13:26:56;8.80;;;3.40;;
67248;SDS011;63247;54.300;18.592;2023-05-20T13:29:21;9.90;;;3.73;;
67248;SDS011;63247;54.300;18.592;2023-05-20T13:31:47;9.35;;;3.30;;
67248;SDS011;63247;54.300;18.592;2023-05-20T13:34:12;6.27;;;3.27;;
67248;SDS011;63247;54.300;18.592;2023-05-20T13:36:38;8.53;;;3.50;;
67248;SDS011;63247;54.300;18.592;2023-05-20T13:39:04;7.63;;;3.60;;
67248;SDS011;63247;54.300;18.592;2023-05-20T13:41:30;11.40;;;3.60;;
67248;SDS011;63247;54.300;18.592;2023-05-20T13:43:56;9.57;;;3.50;;
67248;SDS011;63247;54.300;18.592;2023-05-20T13:46:21;7.68;;;3.55;;
67248;SDS011;63247;54.300;18.592;2023-05-20T13:48:46;7.82;;;3.70;;
67248;SDS011;63247;54.300;18.592;2023-05-20T13:51:12;7.87;;;3.63;;
67248;SDS011;63247;54.300;18.592;2023-05-20T13:53:38;10.63;;;3.67;;
67248;SDS011;63247;54.300;18.592;2023-05-20T13:56:03;8.27;;;3.40;;
67248;SDS011;63247;54.300;18.592;2023-05-20T13:58:29;11.85;;;4.28;;
67248;SDS011;63247;54.300;18.592;2023-05-20T14:00:55;12.35;;;4.88;;
67248;SDS011;63247;54.300;18.592;2023-05-20T14:03:20;7.13;;;3.50;;
67248;SDS011;63247;54.300;18.592;2023-05-20T14:05:46;7.32;;;3.60;;
67248;SDS011;63247;54.300;18.592;2023-05-20T14:08:11;10.30;;;4.17;;
67248;SDS011;63247;54.300;18.592;2023-05-20T14:10:37;7.83;;;3.20;;
67248;SDS011;63247;54.300;18.592;2023-05-20T14:13:02;8.77;;;3.40;;
67248;SDS011;63247;54.300;18.592;2023-05-20T14:15:28;7.38;;;3.80;;
67248;SDS011;63247;54.300;18.592;2023-05-20T14:17:55;11.10;;;3.77;;
67248;SDS011;63247;54.300;18.592;2023-05-20T14:20:21;9.05;;;3.78;;
67248;SDS011;63247;54.300;18.592;2023-05-20T14:22:48;9.85;;;4.70;;
67248;SDS011;63247;54.300;18.592;2023-05-20T14:25:13;14.93;;;6.03;;
67248;SDS011;63247;54.300;18.592;2023-05-20T14:27:38;8.50;;;3.60;;
67248;SDS011;63247;54.300;18.592;2023-05-20T14:30:04;9.80;;;4.70;;
67248;SDS011;63247;54.300;18.592;2023-05-20T14:32:30;7.82;;;3.55;;